createdAt,value
2018-01-08T00:02:08.163Z,10.68
2018-01-08T00:04:38.666Z,11.18
2018-01-08T00:07:07.391Z,11.20
2018-01-08T00:09:35.443Z,10.95
2018-01-08T00:12:12.721Z,10.55
2018-01-08T00:14:40.569Z,9.63
2018-01-08T00:17:15.112Z,9.48
2018-01-08T00:19:42.881Z,11.35
2018-01-08T00:22:11.718Z,10.63
2018-01-08T00:24:39.746Z,11.43
2018-01-08T00:27:14.225Z,10.52
2018-01-08T00:29:41.837Z,11.55
2018-01-08T00:32:12.861Z,9.73
2018-01-08T00:34:41.576Z,10.40
2018-01-08T00:37:09.117Z,10.68
2018-01-08T00:39:38.226Z,11.35
2018-01-08T00:42:07.530Z,10.98
2018-01-08T00:44:51.055Z,10.82
2018-01-08T00:47:20.475Z,11.23
2018-01-08T00:49:47.991Z,10.85
2018-01-08T00:52:15.532Z,10.45
2018-01-08T00:54:43.044Z,11.23
2018-01-08T00:57:10.563Z,11.32
2018-01-08T00:59:38.103Z,10.70
2018-01-08T01:02:05.621Z,12.05
2018-01-08T01:04:33.189Z,12.30
2018-01-08T01:07:00.736Z,12.40
2018-01-08T01:09:28.264Z,10.55
2018-01-08T01:11:55.824Z,11.40
2018-01-08T01:14:23.380Z,11.73
2018-01-08T01:16:50.895Z,11.80
2018-01-08T01:19:18.430Z,13.20
2018-01-08T01:21:45.968Z,12.73
2018-01-08T01:24:14.297Z,12.05
2018-01-08T01:26:41.824Z,12.25
2018-01-08T01:29:09.371Z,12.80
2018-01-08T01:31:36.917Z,12.18
2018-01-08T01:34:04.433Z,12.82
2018-01-08T01:36:31.981Z,13.05
2018-01-08T01:38:59.533Z,13.15
2018-01-08T01:41:27.075Z,12.35
2018-01-08T01:43:54.579Z,11.50
2018-01-08T01:46:22.116Z,13.45
2018-01-08T01:48:49.651Z,12.70
2018-01-08T01:51:17.177Z,12.63
2018-01-08T01:53:44.700Z,12.35
2018-01-08T01:56:12.245Z,13.13
2018-01-08T01:58:39.779Z,12.70
2018-01-08T02:01:08.084Z,13.73
2018-01-08T02:03:35.596Z,13.55
2018-01-08T02:06:03.125Z,13.02
2018-01-08T02:08:30.665Z,13.00
2018-01-08T02:10:58.176Z,12.20
2018-01-08T02:13:26.478Z,12.93
2018-01-08T02:15:54.014Z,13.40
2018-01-08T02:18:22.335Z,13.48
2018-01-08T02:20:49.862Z,12.88
2018-01-08T02:23:18.172Z,12.43
2018-01-08T02:25:45.707Z,13.35
2018-01-08T02:28:13.220Z,13.32
2018-01-08T02:30:40.777Z,12.93
2018-01-08T02:33:08.301Z,13.52
2018-01-08T02:35:35.834Z,12.77
2018-01-08T02:38:04.136Z,14.13
2018-01-08T02:40:31.652Z,13.68
2018-01-08T02:42:59.958Z,13.62
2018-01-08T02:45:27.492Z,13.35
2018-01-08T02:47:55.827Z,14.57
2018-01-08T02:50:23.370Z,14.90
2018-01-08T02:52:50.929Z,13.18
2018-01-08T02:55:18.468Z,13.98
2018-01-08T02:57:45.983Z,14.20
2018-01-08T03:00:13.558Z,13.95
2018-01-08T03:02:41.075Z,14.68
2018-01-08T03:05:08.595Z,14.30
2018-01-08T03:07:36.895Z,14.68
2018-01-08T03:10:04.411Z,13.65
2018-01-08T03:12:32.723Z,14.45
2018-01-08T03:15:00.263Z,14.30
2018-01-08T03:17:28.559Z,14.15
2018-01-08T03:19:56.091Z,13.53
2018-01-08T03:22:24.396Z,14.55
2018-01-08T03:24:51.915Z,13.20
2018-01-08T03:27:19.425Z,13.75
2018-01-08T03:29:46.985Z,15.23
2018-01-08T03:32:14.506Z,14.02
2018-01-08T03:34:42.044Z,15.93
2018-01-08T03:37:09.596Z,15.00
2018-01-08T03:39:37.108Z,15.10
2018-01-08T03:42:04.660Z,14.52
2018-01-08T03:44:32.168Z,15.07
2018-01-08T03:46:59.695Z,14.93
2018-01-08T03:49:27.209Z,15.10
2018-01-08T03:51:55.500Z,15.27
2018-01-08T03:54:23.815Z,14.95
2018-01-08T03:56:51.339Z,15.00
2018-01-08T03:59:18.880Z,14.77
2018-01-08T04:01:47.183Z,14.80
2018-01-08T04:04:14.685Z,15.30
2018-01-08T04:06:42.214Z,14.55
2018-01-08T04:09:09.729Z,15.20
2018-01-08T04:11:38.046Z,16.30
2018-01-08T04:14:05.556Z,15.25
2018-01-08T04:16:33.058Z,15.07
2018-01-08T04:19:00.606Z,15.32
2018-01-08T04:21:28.111Z,14.52
2018-01-08T04:23:55.651Z,15.60
2018-01-08T04:26:23.158Z,15.90
2018-01-08T04:28:51.427Z,16.65
2018-01-08T04:31:18.995Z,15.20
2018-01-08T04:33:47.284Z,16.15
2018-01-08T04:36:15.581Z,15.55
2018-01-08T04:38:43.128Z,17.70
2018-01-08T04:41:10.650Z,17.37
2018-01-08T04:43:38.176Z,16.75
2018-01-08T04:46:05.733Z,16.25
2018-01-08T04:48:33.252Z,16.20
2018-01-08T04:51:00.808Z,15.80
2018-01-08T04:53:29.121Z,16.50
2018-01-08T04:55:56.707Z,16.98
2018-01-08T04:58:24.246Z,16.98
2018-01-08T05:00:51.771Z,16.35
2018-01-08T05:03:20.160Z,16.30
2018-01-08T05:05:47.703Z,14.98
2018-01-08T05:08:15.997Z,16.42
2018-01-08T05:10:43.539Z,16.08
2018-01-08T05:13:11.075Z,15.43
2018-01-08T05:15:38.611Z,15.07
2018-01-08T05:18:06.150Z,16.10
2018-01-08T05:20:33.665Z,16.10
2018-01-08T05:23:01.979Z,16.75
2018-01-08T05:25:29.509Z,16.02
2018-01-08T05:27:57.786Z,17.25
2018-01-08T05:30:26.084Z,16.23
2018-01-08T05:32:53.631Z,17.27
2018-01-08T05:35:21.179Z,16.70
2018-01-08T05:37:48.709Z,17.42
2018-01-08T05:40:16.240Z,16.83
2018-01-08T05:42:43.789Z,18.30
2018-01-08T05:45:11.314Z,17.52
2018-01-08T05:47:39.625Z,16.60
2018-01-08T05:50:07.164Z,17.65
2018-01-08T05:52:34.672Z,17.58
2018-01-08T05:55:02.226Z,17.27
2018-01-08T05:57:29.880Z,18.40
2018-01-08T05:59:57.457Z,18.60
2018-01-08T06:02:24.978Z,17.48
2018-01-08T06:04:52.503Z,18.45
2018-01-08T06:07:20.817Z,19.02
2018-01-08T06:09:48.325Z,17.10
2018-01-08T06:12:15.832Z,18.27
2018-01-08T06:14:43.363Z,18.95
2018-01-08T06:17:10.892Z,17.95
2018-01-08T06:19:38.453Z,18.83
2018-01-08T06:22:05.987Z,18.40
2018-01-08T06:24:33.513Z,19.17
2018-01-08T06:27:01.026Z,18.40
2018-01-08T06:29:28.552Z,19.45
2018-01-08T06:31:56.127Z,19.80
2018-01-08T06:34:23.683Z,19.42
2018-01-08T06:36:51.193Z,20.62
2018-01-08T06:39:18.719Z,19.25
2018-01-08T06:41:46.248Z,19.25
2018-01-08T06:44:13.780Z,20.70
2018-01-08T06:46:42.884Z,19.83
2018-01-08T06:49:10.404Z,19.52
2018-01-08T06:51:37.996Z,19.85
2018-01-08T06:54:05.542Z,19.40
2018-01-08T06:56:33.274Z,20.17
2018-01-08T06:59:00.860Z,19.83
2018-01-08T07:01:28.417Z,20.15
2018-01-08T07:03:56.743Z,19.37
2018-01-08T07:06:24.444Z,19.23
2018-01-08T07:08:52.718Z,21.08
2018-01-08T07:11:21.000Z,19.92
2018-01-08T07:13:49.300Z,20.70
2018-01-08T07:16:16.834Z,19.83
2018-01-08T07:18:45.192Z,20.05
2018-01-08T07:21:13.851Z,21.77
2018-01-08T07:23:41.408Z,20.75
2018-01-08T07:26:08.948Z,20.98
2018-01-08T07:28:36.486Z,20.75
2018-01-08T07:31:04.044Z,20.95
2018-01-08T07:33:32.362Z,20.42
2018-01-08T07:35:59.897Z,20.70
2018-01-08T07:38:27.416Z,20.67
2018-01-08T07:40:55.019Z,20.98
2018-01-08T07:43:22.522Z,21.70
2018-01-08T07:45:50.075Z,20.90
2018-01-08T07:48:17.606Z,20.62
2018-01-08T07:50:45.156Z,20.15
2018-01-08T07:53:12.662Z,19.85
2018-01-08T07:55:40.172Z,21.60
2018-01-08T07:58:07.704Z,21.70
2018-01-08T08:00:35.239Z,21.10
2018-01-08T08:03:02.759Z,21.80
2018-01-08T08:05:30.291Z,20.80
2018-01-08T08:07:57.825Z,22.52
2018-01-08T08:10:25.380Z,21.65
2018-01-08T08:12:52.906Z,21.47
2018-01-08T08:15:20.453Z,21.85
2018-01-08T08:17:47.980Z,20.98
2018-01-08T08:20:15.537Z,21.37
2018-01-08T08:22:43.063Z,20.70
2018-01-08T08:25:10.601Z,21.45
2018-01-08T08:27:38.125Z,21.58
2018-01-08T08:30:05.671Z,20.65
2018-01-08T08:32:33.967Z,22.40
2018-01-08T08:35:01.536Z,21.40
2018-01-08T08:37:29.075Z,20.95
2018-01-08T08:39:57.417Z,21.80
2018-01-08T08:42:24.955Z,20.08
2018-01-08T08:44:52.545Z,21.52
2018-01-08T08:47:20.081Z,21.42
2018-01-08T08:49:47.577Z,22.60
2018-01-08T08:52:15.880Z,20.83
2018-01-08T08:54:43.402Z,19.67
2018-01-08T08:57:11.725Z,20.90
2018-01-08T08:59:39.227Z,21.90
2018-01-08T09:02:06.736Z,20.10
2018-01-08T09:04:34.282Z,21.57
2018-01-08T09:07:01.798Z,20.23
2018-01-08T09:09:29.321Z,21.23
2018-01-08T09:11:56.859Z,20.05
2018-01-08T09:14:25.415Z,20.00
2018-01-08T09:16:53.719Z,20.77
2018-01-08T09:19:21.252Z,21.50
2018-01-08T09:21:49.571Z,20.27
2018-01-08T09:24:17.105Z,20.77
2018-01-08T09:26:44.632Z,21.07
2018-01-08T09:29:12.157Z,21.37
2018-01-08T09:31:39.696Z,20.58
2018-01-08T09:34:07.231Z,20.55
2018-01-08T09:36:35.998Z,22.17
2018-01-08T09:39:03.530Z,19.67
2018-01-08T09:41:31.112Z,21.70
2018-01-08T09:43:58.634Z,20.80
2018-01-08T09:46:26.154Z,19.60
2018-01-08T09:48:53.692Z,21.60
2018-01-08T09:51:21.221Z,20.85
2018-01-08T09:53:48.798Z,20.65
2018-01-08T09:56:16.307Z,21.50
2018-01-08T09:58:43.817Z,20.08
2018-01-08T10:01:11.351Z,20.70
2018-01-08T10:03:50.713Z,20.57
2018-01-08T10:06:30.066Z,20.58
2018-01-08T10:09:09.493Z,20.07
2018-01-08T10:11:49.052Z,20.30
2018-01-08T10:14:29.228Z,19.58
2018-01-08T10:17:08.643Z,19.53
2018-01-08T10:22:34.693Z,19.03
2018-01-08T10:25:02.995Z,19.20
2018-01-08T10:27:30.539Z,20.10
2018-01-08T10:29:58.070Z,19.02
2018-01-08T10:32:25.600Z,19.77
2018-01-08T10:34:53.126Z,19.13
2018-01-08T10:37:20.637Z,20.07
2018-01-08T10:39:48.187Z,17.67
2018-01-08T10:42:21.261Z,18.67
2018-01-08T10:44:54.550Z,19.00
2018-01-08T10:47:27.796Z,19.53
2018-01-08T10:50:01.893Z,19.30
2018-01-08T10:52:29.481Z,19.47
2018-01-08T10:54:57.855Z,20.25
2018-01-08T10:57:26.163Z,19.60
2018-01-08T10:59:54.449Z,19.60
2018-01-08T11:02:27.651Z,18.60
2018-01-08T11:04:55.193Z,18.77
2018-01-08T11:07:22.700Z,18.90
2018-01-08T11:09:51.030Z,19.00
2018-01-08T11:12:18.560Z,18.63
2018-01-08T11:14:46.078Z,18.43
2018-01-08T11:17:13.659Z,18.03
2018-01-08T11:19:41.990Z,18.63
2018-01-08T11:22:09.550Z,18.87
2018-01-08T11:24:37.078Z,17.93
2018-01-08T11:27:04.603Z,17.83
2018-01-08T11:29:32.147Z,18.07
2018-01-08T11:31:59.667Z,18.13
2018-01-08T11:34:27.200Z,18.70
2018-01-08T11:36:54.706Z,17.80
2018-01-08T11:39:22.457Z,18.00
2018-01-08T11:41:50.179Z,18.47
2018-01-08T11:44:18.467Z,18.70
2018-01-08T11:46:45.979Z,19.17
2018-01-08T11:49:13.541Z,18.30
2018-01-08T11:51:41.057Z,17.90
2018-01-08T11:54:08.605Z,18.63
2018-01-08T11:56:36.148Z,18.40
2018-01-08T11:59:04.420Z,17.30
2018-01-08T12:01:33.092Z,18.27
2018-01-08T12:04:00.600Z,17.57
2018-01-08T12:06:28.104Z,17.30
2018-01-08T12:08:55.644Z,16.50
2018-01-08T12:11:23.164Z,16.77
2018-01-08T12:13:50.718Z,15.77
2018-01-08T12:16:18.229Z,17.00
2018-01-08T12:18:45.785Z,16.93
2018-01-08T12:21:13.319Z,17.40
2018-01-08T12:23:41.629Z,15.80
2018-01-08T12:26:09.224Z,16.00
2018-01-08T12:28:36.764Z,16.63
2018-01-08T12:31:05.060Z,16.65
2018-01-08T12:33:33.378Z,16.03
2018-01-08T12:36:00.900Z,15.60
2018-01-08T12:38:28.418Z,16.10
2018-01-08T12:40:55.944Z,16.47
2018-01-08T12:43:23.486Z,16.43
2018-01-08T12:45:51.048Z,15.23
2018-01-08T12:48:18.556Z,15.03
2018-01-08T12:50:46.076Z,15.10
2018-01-08T12:53:13.614Z,14.80
2018-01-08T12:55:41.127Z,14.90
2018-01-08T12:58:08.664Z,14.27
2018-01-08T13:00:36.227Z,14.57
2018-01-08T13:03:03.767Z,15.13
2018-01-08T13:05:31.307Z,14.87
2018-01-08T13:07:58.814Z,14.80
2018-01-08T13:10:26.341Z,13.83
2018-01-08T13:12:53.860Z,14.90
2018-01-08T13:15:21.409Z,14.53
2018-01-08T13:17:48.932Z,15.47
2018-01-08T13:20:16.488Z,15.20
2018-01-08T13:22:44.064Z,14.67
2018-01-08T13:25:11.595Z,13.40
2018-01-08T13:27:39.917Z,14.90
2018-01-08T13:30:07.498Z,13.90
2018-01-08T13:32:35.827Z,14.30
2018-01-08T13:35:03.348Z,14.07
2018-01-08T13:37:30.895Z,13.70
2018-01-08T13:39:59.188Z,13.87
2018-01-08T13:42:26.717Z,14.10
2018-01-08T13:44:55.018Z,13.43
2018-01-08T13:47:22.534Z,14.20
2018-01-08T13:49:50.079Z,13.00
2018-01-08T13:52:17.591Z,13.07
2018-01-08T13:54:45.105Z,12.53
2018-01-08T13:57:12.653Z,13.20
2018-01-08T13:59:40.233Z,12.50
2018-01-08T14:02:07.795Z,13.13
2018-01-08T14:04:35.311Z,13.13
2018-01-08T14:07:05.610Z,12.48
2018-01-08T14:09:33.177Z,14.45
2018-01-08T14:12:00.782Z,14.20
2018-01-08T14:14:28.343Z,12.00
2018-01-08T14:16:55.915Z,13.13
2018-01-08T14:19:23.440Z,12.70
2018-01-08T14:21:51.735Z,12.43
2018-01-08T14:24:19.278Z,12.73
2018-01-08T14:26:46.874Z,12.37
2018-01-08T14:29:14.401Z,12.57
2018-01-08T14:31:41.924Z,11.88
2018-01-08T14:34:09.481Z,13.10
2018-01-08T14:36:37.026Z,12.90
2018-01-08T14:39:04.537Z,13.13
2018-01-08T14:41:32.143Z,13.07
2018-01-08T14:43:59.672Z,14.65
2018-01-08T14:46:27.198Z,12.60
2018-01-08T14:48:54.735Z,11.77
2018-01-08T14:51:22.294Z,12.80
2018-01-08T14:53:49.826Z,12.80
2018-01-08T14:56:18.222Z,12.37
2018-01-08T14:58:45.770Z,12.60
2018-01-08T15:01:14.082Z,12.52
2018-01-08T15:03:41.611Z,12.40
2018-01-08T15:06:09.907Z,12.13
2018-01-08T15:08:37.458Z,11.88
2018-01-08T15:11:05.573Z,12.80
2018-01-08T15:13:33.151Z,12.23
2018-01-08T15:16:00.924Z,12.60
2018-01-08T15:18:28.483Z,12.85
2018-01-08T15:20:56.011Z,12.18
2018-01-08T15:23:23.558Z,12.60
2018-01-08T15:25:51.073Z,13.03
2018-01-08T15:28:19.368Z,12.57
2018-01-08T15:30:46.890Z,12.70
2018-01-08T15:33:14.401Z,13.33
2018-01-08T15:35:41.968Z,13.50
2018-01-08T15:38:09.498Z,12.35
2018-01-08T15:40:37.026Z,14.38
2018-01-08T15:43:04.558Z,12.70
2018-01-08T15:45:32.064Z,12.20
2018-01-08T15:48:01.092Z,13.90
2018-01-08T15:50:28.626Z,11.93
2018-01-08T15:52:56.165Z,12.57
2018-01-08T15:55:24.485Z,12.45
2018-01-08T15:57:52.003Z,12.73
2018-01-08T16:00:20.316Z,12.47
2018-01-08T16:02:47.890Z,11.82
2018-01-08T16:05:15.497Z,11.25
2018-01-08T16:07:43.928Z,12.05
2018-01-08T16:10:11.851Z,12.45
2018-01-08T16:12:39.781Z,12.93
2018-01-08T16:15:07.422Z,12.63
2018-01-08T16:17:34.948Z,11.55
2018-01-08T16:20:03.276Z,12.90
2018-01-08T16:22:30.786Z,12.30
2018-01-08T16:24:58.319Z,11.80
2018-01-08T16:27:25.877Z,12.97
2018-01-08T16:29:53.403Z,13.38
2018-01-08T16:32:20.928Z,12.80
2018-01-08T16:34:48.491Z,12.70
2018-01-08T16:37:16.045Z,13.68
2018-01-08T16:39:43.618Z,13.15
2018-01-08T16:42:11.147Z,12.85
2018-01-08T16:44:39.411Z,12.55
2018-01-08T16:47:06.936Z,12.82
2018-01-08T16:49:34.499Z,13.43
2018-01-08T16:52:02.023Z,12.93
2018-01-08T16:54:29.540Z,13.25
2018-01-08T16:56:57.105Z,12.95
2018-01-08T16:59:24.639Z,12.93
2018-01-08T17:01:52.196Z,12.70
2018-01-08T17:04:19.752Z,12.40
2018-01-08T17:06:47.265Z,12.68
2018-01-08T17:09:14.821Z,12.15
2018-01-08T17:11:43.099Z,12.68
2018-01-08T17:14:10.656Z,12.30
2018-01-08T17:16:38.931Z,12.43
2018-01-08T17:19:07.239Z,12.48
2018-01-08T17:21:34.834Z,12.50
2018-01-08T17:24:02.359Z,12.03
2018-01-08T17:26:29.885Z,11.98
2018-01-08T17:28:58.198Z,12.85
2018-01-08T17:31:25.695Z,12.80
2018-01-08T17:33:53.251Z,12.82
2018-01-08T17:36:20.801Z,12.10
2018-01-08T17:38:48.344Z,12.37
2018-01-08T17:41:15.872Z,12.43
2018-01-08T17:43:43.397Z,12.85
2018-01-08T17:46:10.946Z,12.73
2018-01-08T17:48:38.482Z,12.37
2018-01-08T17:51:06.011Z,12.80
2018-01-08T17:53:33.566Z,13.68
2018-01-08T17:56:01.107Z,12.57
2018-01-08T17:58:29.397Z,12.90
2018-01-08T18:00:56.955Z,12.80
2018-01-08T18:03:24.465Z,14.70
2018-01-08T18:05:52.108Z,12.23
2018-01-08T18:08:19.600Z,11.80
2018-01-08T18:10:47.124Z,12.67
2018-01-08T18:13:14.664Z,11.83
2018-01-08T18:15:42.188Z,11.95
2018-01-08T18:18:10.510Z,12.50
2018-01-08T18:20:38.018Z,11.83
2018-01-08T18:23:06.297Z,11.80
2018-01-08T18:25:34.637Z,12.80
2018-01-08T18:28:02.184Z,12.10
2018-01-08T18:30:29.735Z,13.30
2018-01-08T18:32:57.263Z,13.53
2018-01-08T18:35:24.787Z,12.40
2018-01-08T18:37:52.313Z,12.60
2018-01-08T18:40:19.866Z,12.80
2018-01-08T18:42:47.377Z,14.52
2018-01-08T18:45:15.015Z,12.00
2018-01-08T18:47:42.564Z,12.50
2018-01-08T18:50:10.178Z,13.27
2018-01-08T18:52:38.497Z,12.83
2018-01-08T18:55:06.015Z,12.43
2018-01-08T18:57:33.552Z,13.50
2018-01-08T19:00:01.094Z,12.63
2018-01-08T19:02:28.643Z,13.37
2018-01-08T19:04:56.212Z,12.43
2018-01-08T19:07:23.727Z,13.53
2018-01-08T19:09:51.636Z,12.35
2018-01-08T19:12:19.524Z,13.32
2018-01-08T19:14:47.088Z,14.23
2018-01-08T19:17:14.638Z,13.95
2018-01-08T19:19:42.255Z,14.37
2018-01-08T19:22:10.429Z,13.20
2018-01-08T19:24:38.076Z,13.37
2018-01-08T19:27:05.689Z,13.53
2018-01-08T19:29:33.244Z,13.40
2018-01-08T19:32:00.799Z,13.63
2018-01-08T19:34:28.425Z,14.32
2018-01-08T19:36:56.812Z,13.33
2018-01-08T19:39:24.379Z,12.90
2018-01-08T19:41:51.895Z,13.60
2018-01-08T19:44:20.212Z,12.70
2018-01-08T19:46:47.867Z,12.37
2018-01-08T19:49:15.396Z,15.10
2018-01-08T19:51:43.663Z,14.30
2018-01-08T19:54:11.979Z,14.40
2018-01-08T19:56:39.497Z,14.20
2018-01-08T19:59:07.166Z,13.90
2018-01-08T20:01:34.727Z,15.43
2018-01-08T20:04:02.304Z,15.75
2018-01-08T20:06:29.890Z,13.70
2018-01-08T20:08:57.536Z,13.90
2018-01-08T20:11:25.072Z,13.83
2018-01-08T20:13:52.605Z,13.70
2018-01-08T20:16:20.159Z,13.20
2018-01-08T20:18:47.683Z,13.80
2018-01-08T20:21:15.218Z,13.50
2018-01-08T20:23:42.897Z,14.70
2018-01-08T20:26:10.466Z,13.75
2018-01-08T20:28:38.020Z,13.60
2018-01-08T20:31:05.542Z,14.55
2018-01-08T20:33:33.166Z,15.35
2018-01-08T20:36:00.774Z,13.60
2018-01-08T20:38:28.331Z,14.20
2018-01-08T20:43:41.079Z,15.82
2018-01-08T20:46:08.653Z,15.40
2018-01-08T20:48:36.228Z,13.85
2018-01-08T20:51:03.813Z,14.75
2018-01-08T20:53:31.430Z,14.68
2018-01-08T20:55:58.972Z,16.17
2018-01-08T20:58:26.476Z,14.00
2018-01-08T21:00:54.023Z,14.95
2018-01-08T21:03:21.563Z,15.27
2018-01-08T21:05:49.202Z,14.60
2018-01-08T21:08:17.039Z,14.77
2018-01-08T21:10:44.572Z,14.10
2018-01-08T21:13:12.120Z,15.43
2018-01-08T21:15:40.208Z,15.30
2018-01-08T21:18:07.829Z,15.40
2018-01-08T21:20:36.137Z,15.60
2018-01-08T21:23:03.683Z,15.40
2018-01-08T21:25:31.260Z,15.35
2018-01-08T21:27:58.833Z,16.27
2018-01-08T21:30:26.356Z,16.42
2018-01-08T21:32:54.670Z,16.20
2018-01-08T21:35:22.251Z,16.20
2018-01-08T21:37:50.551Z,14.95
2018-01-08T21:40:18.086Z,15.55
2018-01-08T21:42:46.425Z,14.90
2018-01-08T21:45:13.990Z,15.07
2018-01-08T21:47:41.574Z,15.70
2018-01-08T21:50:09.901Z,15.70
2018-01-08T21:52:37.463Z,22.62
2018-01-08T21:55:04.980Z,15.40
2018-01-08T21:57:33.337Z,14.97
2018-01-08T22:00:00.930Z,16.77
2018-01-08T22:02:28.462Z,15.40
2018-01-08T22:04:55.991Z,14.53
2018-01-08T22:07:23.539Z,16.67
2018-01-08T22:09:51.129Z,15.27
2018-01-08T22:12:18.658Z,16.27
2018-01-08T22:14:47.622Z,15.45
2018-01-08T22:17:15.189Z,14.77
2018-01-08T22:19:42.772Z,15.97
2018-01-08T22:22:10.335Z,15.48
2018-01-08T22:24:37.900Z,15.25
2018-01-08T22:27:05.458Z,15.53
2018-01-08T22:29:32.982Z,15.10
2018-01-08T22:32:00.592Z,15.55
2018-01-08T22:34:28.183Z,15.30
2018-01-08T22:36:56.480Z,15.50
2018-01-08T22:39:24.072Z,15.83
2018-01-08T22:41:51.996Z,16.70
2018-01-08T22:44:19.593Z,14.47
2018-01-08T22:46:47.134Z,16.50
2018-01-08T22:49:14.680Z,16.25
2018-01-08T22:51:42.596Z,15.70
2018-01-08T22:54:10.154Z,14.75
2018-01-08T22:56:38.465Z,14.75
2018-01-08T22:59:06.784Z,16.70
2018-01-08T23:01:34.355Z,15.63
2018-01-08T23:04:01.914Z,15.65
2018-01-08T23:06:29.480Z,15.90
2018-01-08T23:08:57.000Z,15.75
2018-01-08T23:11:24.881Z,16.65
2018-01-08T23:13:52.399Z,16.25
2018-01-08T23:16:20.687Z,16.20
2018-01-08T23:18:48.990Z,16.45
2018-01-08T23:21:17.299Z,15.95
2018-01-08T23:23:44.839Z,16.17
2018-01-08T23:26:12.372Z,16.27
2018-01-08T23:28:39.927Z,16.45
2018-01-08T23:31:07.438Z,15.07
2018-01-08T23:33:34.966Z,16.83
2018-01-08T23:36:02.508Z,17.00
2018-01-08T23:38:30.018Z,15.60
2018-01-08T23:40:57.545Z,16.17
2018-01-08T23:43:25.055Z,15.68
2018-01-08T23:45:53.352Z,17.15
2018-01-08T23:48:20.872Z,18.00
2018-01-08T23:50:48.426Z,16.08
2018-01-08T23:53:15.952Z,16.30
2018-01-08T23:55:43.462Z,16.65
2018-01-08T23:58:11.002Z,16.27
